Silver City, NM

10:56 PM MDT on September 24, 2017 (GMT -0600)
Grant County

Weather History for KSVC - June, 2013

Change the Weather History Date:

Wednesday, June 26, 2013

  Actual Average (KDMN) Record (KDMN)
Temperature  
Mean Temperature 76 °F -  
Max Temperature 93 °F 96 °F 106 °F (1957)
Min Temperature 60 °F 62 °F 47 °F (1983)
Cooling Degree Days 12    
Growing Degree Days 26 (Base 50)    
Moisture  
Dew Point 11 °F    
Average Humidity 8    
Maximum Humidity 13    
Minimum Humidity 4    
Precipitation  
Precipitation 0.00 in - - ()
Sea Level Pressure  
Sea Level Pressure 30.20 in    
Wind  
Wind Speed 14 mph (NW)    
Max Wind Speed 24 mph    
Max Gust Speed 30 mph    
Visibility 10 miles    
Events      
Averages and records for this station are not official NWS values.
T = Trace of Precipitation, MM = Missing Value Source: NWS Daily Summary

Daily Weather History Graph

Daily Weather History Graph

Search for Another Location

Airport or City:

Trip Planner

Search our weather history database for the weather conditions in past years. The results will help you decide how hot, cold, wet, or windy it might be!

Date:

Astronomy

Jun. 26, 2013 Rise Set
Actual Time 6:06 AM MDT 8:24 PM MDT
Civil Twilight 5:38 AM MDT 8:52 PM MDT
Nautical Twilight 5:03 AM MDT 9:27 PM MDT
Astronomical Twilight 4:25 AM MDT 10:05 PM MDT
Moon 11:04 PM MDT (6/26) 9:49 AM MDT (6/26)
Length of Visible Light 15h 14m
Length of Day
14h 17m
Waning Gibbous, 85% of the Moon is Illuminated
Jun 26
Waning Gibbous
Jun 29
Last Quarter
Jul 8
New
Jul 15
First Quarter
Jul 22
Full

Hourly Weather History & Observations

Time (MDT) Temp. Dew Point Humidity Pressure Visibility Wind Dir Wind Speed Gust Speed Precip Events Conditions
12:15 AM 66.2 °F 10.4 °F 11% 30.17 in 10.0 mi NNW 13.8 mph - N/A   Clear
12:35 AM 62.6 °F 10.4 °F 13% 30.17 in 10.0 mi NNW 11.5 mph - N/A   Clear
12:55 AM 64.4 °F 10.4 °F 12% 30.18 in 10.0 mi NNW 12.7 mph - N/A   Clear
1:15 AM 64.4 °F 8.6 °F 11% 30.18 in 10.0 mi North 11.5 mph - N/A   Clear
1:35 AM 62.6 °F 8.6 °F 12% 30.18 in 10.0 mi NNW 16.1 mph - N/A   Clear
1:55 AM 62.6 °F 8.6 °F 12% 30.18 in 10.0 mi NNW 12.7 mph - N/A   Clear
2:15 AM 64.4 °F 8.6 °F 11% 30.18 in 10.0 mi NNW 15.0 mph - N/A   Clear
2:35 AM 64.4 °F 8.6 °F 11% 30.17 in 10.0 mi NNW 15.0 mph - N/A   Clear
2:55 AM 62.6 °F 6.8 °F 11% 30.17 in 10.0 mi NNW 15.0 mph - N/A   Clear
3:15 AM 64.4 °F 6.8 °F 10% 30.17 in 10.0 mi NNW 15.0 mph - N/A   Clear
3:35 AM 66.2 °F 8.6 °F 11% 30.17 in 10.0 mi NW 13.8 mph - N/A   Clear
3:55 AM 64.4 °F 6.8 °F 10% 30.17 in 10.0 mi NW 13.8 mph - N/A   Clear
4:15 AM 64.4 °F 8.6 °F 11% 30.17 in 10.0 mi NNW 11.5 mph - N/A   Clear
4:35 AM 64.4 °F 8.6 °F 11% 30.17 in 10.0 mi NW 15.0 mph - N/A   Clear
4:55 AM 64.4 °F 8.6 °F 11% 30.17 in 10.0 mi NW 12.7 mph - N/A   Clear
5:15 AM 64.4 °F 8.6 °F 11% 30.19 in 10.0 mi West 9.2 mph - N/A   Clear
5:35 AM 66.2 °F 8.6 °F 11% 30.20 in 10.0 mi West 10.4 mph - N/A   Clear
5:55 AM 60.8 °F 8.6 °F 13% 30.21 in 10.0 mi West 10.4 mph - N/A   Clear
6:15 AM 60.8 °F 8.6 °F 13% 30.21 in 10.0 mi West 15.0 mph - N/A   Clear
6:35 AM 62.6 °F 8.6 °F 12% 30.22 in 10.0 mi WNW 12.7 mph - N/A   Clear
6:55 AM 64.4 °F 10.4 °F 12% 30.22 in 10.0 mi NW 11.5 mph - N/A   Clear
7:15 AM 64.4 °F 10.4 °F 12% 30.22 in 10.0 mi NW 10.4 mph - N/A   Clear
7:35 AM 71.6 °F 10.4 °F 9% 30.23 in 10.0 mi NW 9.2 mph - N/A   Clear
7:55 AM 75.2 °F 12.2 °F 9% 30.24 in 10.0 mi NW 11.5 mph - N/A   Clear
8:15 AM 77.0 °F 14.0 °F 9% 30.24 in 10.0 mi NW 12.7 mph - N/A   Clear
8:55 AM 80.6 °F 14.0 °F 8% 30.24 in 10.0 mi NW 18.4 mph 23.0 mph N/A   Clear
9:15 AM 80.6 °F 14.0 °F 8% 30.24 in 10.0 mi NW 20.7 mph - N/A   Clear
9:35 AM 82.4 °F 14.0 °F 8% 30.24 in 10.0 mi NW 20.7 mph 25.3 mph N/A   Clear
9:55 AM 84.2 °F 15.8 °F 8% 30.24 in 10.0 mi NW 21.9 mph 28.8 mph N/A   Clear
10:15 AM 84.2 °F 15.8 °F 8% 30.24 in 10.0 mi WNW 24.2 mph 29.9 mph N/A   Clear
10:35 AM 86.0 °F 15.8 °F 7% 30.25 in 10.0 mi NW 23.0 mph 28.8 mph N/A   Clear
10:55 AM 86.0 °F 17.6 °F 8% 30.25 in 10.0 mi WNW 19.6 mph 27.6 mph N/A   Clear
11:15 AM 86.0 °F 17.6 °F 8% 30.25 in 10.0 mi WNW 19.6 mph 28.8 mph N/A   Clear
11:35 AM 87.8 °F 19.4 °F 8% 30.26 in 10.0 mi WNW 18.4 mph - N/A   Clear
11:55 AM 89.6 °F 21.2 °F 8% 30.25 in 10.0 mi NW 17.3 mph 26.5 mph N/A   Clear
12:15 PM 89.6 °F 21.2 °F 8% 30.25 in 10.0 mi NNW 20.7 mph 25.3 mph N/A   Clear
12:35 PM 89.6 °F 21.2 °F 8% 30.24 in 10.0 mi WNW 18.4 mph 28.8 mph N/A   Clear
12:55 PM 91.4 °F 19.4 °F 7% 30.24 in 10.0 mi NW 21.9 mph 26.5 mph N/A   Clear
1:15 PM 89.6 °F 17.6 °F 7% 30.23 in 10.0 mi WNW 12.7 mph 21.9 mph N/A   Clear
1:35 PM 91.4 °F 15.8 °F 6% 30.22 in 10.0 mi NNW 18.4 mph 26.5 mph N/A   Clear
1:55 PM 91.4 °F 14.0 °F 6% 30.22 in 10.0 mi North 5.8 mph 20.7 mph N/A   Clear
2:15 PM 91.4 °F 15.8 °F 6% 30.22 in 10.0 mi NW 16.1 mph 27.6 mph N/A   Clear
2:35 PM 93.2 °F 19.4 °F 7% 30.21 in 10.0 mi NW 17.3 mph 26.5 mph N/A   Clear
2:55 PM 93.2 °F 17.6 °F 6% 30.20 in 10.0 mi WNW 16.1 mph 25.3 mph N/A   Clear
3:15 PM 93.2 °F 17.6 °F 6% 30.20 in 10.0 mi WSW 9.2 mph 18.4 mph N/A   Clear
3:35 PM 93.2 °F 15.8 °F 6% 30.19 in 10.0 mi WSW 11.5 mph 18.4 mph N/A   Clear
3:55 PM 93.2 °F 14.0 °F 5% 30.19 in 10.0 mi West 16.1 mph 23.0 mph N/A   Clear
4:15 PM 93.2 °F 10.4 °F 5% 30.18 in 10.0 mi West 13.8 mph 21.9 mph N/A   Clear
4:35 PM 93.2 °F 12.2 °F 5% 30.18 in 10.0 mi WSW 8.1 mph 20.7 mph N/A   Clear
4:55 PM 93.2 °F 10.4 °F 5% 30.17 in 10.0 mi West 15.0 mph 21.9 mph N/A   Clear
5:15 PM 93.2 °F 8.6 °F 4% 30.16 in 10.0 mi West 18.4 mph 24.2 mph N/A   Clear
5:35 PM 93.2 °F 8.6 °F 4% 30.16 in 10.0 mi WNW 12.7 mph 19.6 mph N/A   Clear
5:55 PM 93.2 °F 10.4 °F 5% 30.16 in 10.0 mi West 11.5 mph 16.1 mph N/A   Clear
6:15 PM 93.2 °F 8.6 °F 4% 30.15 in 10.0 mi West 12.7 mph 16.1 mph N/A   Clear
6:35 PM 93.2 °F 10.4 °F 5% 30.15 in 10.0 mi West 15.0 mph 24.2 mph N/A   Clear
6:55 PM 91.4 °F 8.6 °F 5% 30.15 in 10.0 mi WNW 17.3 mph - N/A   Clear
7:15 PM 91.4 °F 10.4 °F 5% 30.15 in 10.0 mi West 16.1 mph - N/A   Clear
7:35 PM 89.6 °F 8.6 °F 5% 30.15 in 10.0 mi West 15.0 mph 23.0 mph N/A   Clear
7:55 PM 86.0 °F 6.8 °F 5% 30.16 in 10.0 mi West 10.4 mph - N/A   Clear
8:15 PM 84.2 °F 5.0 °F 5% 30.16 in 10.0 mi West 12.7 mph - N/A   Clear
8:35 PM 82.4 °F 5.0 °F 5% 30.16 in 10.0 mi WNW 10.4 mph 17.3 mph N/A   Clear
8:55 PM 77.0 °F 3.2 °F 6% 30.17 in 10.0 mi NW 9.2 mph - N/A   Clear
9:15 PM 73.4 °F 1.4 °F 6% 30.17 in 10.0 mi NW 12.7 mph - N/A   Clear
9:35 PM 73.4 °F 1.4 °F 6% 30.18 in 10.0 mi NNW 9.2 mph - N/A   Clear
9:55 PM 71.6 °F 1.4 °F 6% 30.18 in 10.0 mi NNW 10.4 mph - N/A   Clear
10:15 PM 71.6 °F 1.4 °F 6% 30.20 in 10.0 mi NNW 11.5 mph - N/A   Clear
10:35 PM 71.6 °F 3.2 °F 7% 30.20 in 10.0 mi NNW 13.8 mph - N/A   Clear
10:55 PM 71.6 °F 5.0 °F 7% 30.20 in 10.0 mi NNW 13.8 mph - N/A   Clear
11:15 PM 71.6 °F 5.0 °F 7% 30.21 in 10.0 mi North 12.7 mph - N/A   Clear
11:35 PM 71.6 °F 5.0 °F 7% 30.21 in 10.0 mi NNW 13.8 mph - N/A   Clear